Nearby METAR Reports

 

KCRG - Jacksonvil/Craig, Florida, USA
Distance from station: S 4mi, 6km
Updated: Sun, 23-Jan-2022 9:53am EST
Overcast
Overcast
 Wind from NW
Wind: NW 6 mph , 9 km/h
Temperature: 41°F , 5°C
Wind Chill: 37°F , 3°C
Dew Point: 34°F , 1°C
Humidity: 76%
Barometer: 30.18 inHg , 1022 hPa
Clouds: Overcast
Visibility: 10 miles , 16 km
Cloud details: Overcast 1800 ft
2022/01/23 14:53 KCRG 231453Z 31005KT 10SM OVC018 05/01 A3018 RMK AO2 SLP220 T00500006 58001
KNRB - Mayport Nas, Florida, USA
Distance from station: E 6mi, 10km
Updated: Sun, 23-Jan-2022 9:52am EST
Overcast
Overcast
 Wind from NW
Wind: NW 8 mph , 13 km/h
Temperature: 39°F , 4°C
Wind Chill: 33°F , 1°C
Dew Point: 32°F , 0°C
Humidity: 75%
Barometer: 30.18 inHg , 1022 hPa
Clouds: Overcast
Visibility: 10 miles , 16 km
Cloud details: Overcast 1700 ft
2022/01/23 14:52 KNRB 231452Z AUTO 32007KT 10SM OVC017 04/00 A3018 RMK AO2 SLP219 T00440000 58002
 
KJAX - Jacksonville, Florida, USA
Distance from station: NW 13mi, 20km
Updated: Sun, 23-Jan-2022 9:56am EST
Mostly cloudy
Mostly cloudy
 Wind from calm
Wind: Calm
Temperature: 39°F , 4°C
Dew Point: 30°F , -1°C
Humidity: 70%
Barometer: 30.18 inHg , 1022 hPa
Clouds: Mostly cloudy
Visibility: 10 miles , 16 km
Cloud details: Mostly cloudy 1700 ft
Mostly cloudy 25000 ft
2022/01/23 14:56 KJAX 231456Z 00000KT 10SM BKN017 BKN250 04/M01 A3018 RMK AO2 SLP220 T00391006 58003
KNIP - Jacksonville Nas, Florida, USA
Distance from station: SW 15mi, 24km
Updated: Sun, 23-Jan-2022 9:53am EST
Mostly cloudy
Mostly cloudy
 Wind from varies
Wind: varies 5 mph , 7 km/h
Temperature: 39°F , 4°C
Wind Chill: 35°F , 2°C
Dew Point: 30°F , -1°C
Humidity: 70%
Barometer: 30.19 inHg , 1022.4 hPa
Clouds: Mostly cloudy
Visibility: 10 miles , 16 km
Cloud details: Mostly cloudy 1800 ft
2022/01/23 14:53 KNIP 231453Z VRB04KT 10SM BKN018 04/M01 A3019 RMK AO2 SLP219 T00391006 58001
 
KFHB - Fernandina Beach, Florida, USA
Distance from station: N 16mi, 26km
Updated: Sun, 23-Jan-2022 9:55am EST
Overcast
Overcast
 Wind from WNW
Wind: WNW 10 mph , 17 km/h
Temperature: 41°F , 5°C
Wind Chill: 35°F , 2°C
Dew Point: 32°F , 0°C
Humidity: 70%
Barometer: 30.18 inHg , 1022 hPa
Clouds: Overcast
Visibility: 10 miles , 16 km
Cloud details: Overcast 1600 ft
2022/01/23 14:55 KFHB 231455Z AUTO 30009KT 10SM OVC016 05/00 A3018 RMK AO2 T00450002
KVQQ - Jacksonvil/Cecil, Florida, USA
Distance from station: WSW 25mi, 40km
Updated: Sun, 23-Jan-2022 9:50am EST
Mostly cloudy
Mostly cloudy
 Wind from N
Wind: N 6 mph , 9 km/h
Temperature: 41°F , 5°C
Wind Chill: 37°F , 3°C
Dew Point: 36°F , 2°C
Humidity: 81%
Barometer: 30.19 inHg , 1022.4 hPa
Clouds: Mostly cloudy
Visibility: 10 miles , 16 km
Cloud details: Mostly cloudy 1600 ft
2022/01/23 14:50 KVQQ 231450Z 01005KT 10SM BKN016 05/02 A3019
 
KSGJ - St Augustine, Florida, USA
Distance from station: SSE 31mi, 51km
Updated: Sun, 23-Jan-2022 9:56am EST
Overcast
Overcast
 Wind from NNW
Wind: NNW 8 mph , 13 km/h
Temperature: 39°F , 4°C
Wind Chill: 33°F , 1°C
Dew Point: 36°F , 2°C
Humidity: 87%
Barometer: 30.20 inHg , 1022.7 hPa
Clouds: Overcast
Visibility: 10 miles , 16 km
Cloud details: Overcast 1100 ft
2022/01/23 14:56 KSGJ 231456Z 34007KT 10SM OVC011 04/02 A3020 RMK AO2 SLP224 T00390017 51004
K42J - Keystone Heights, Florida, USA
Distance from station: SW 49mi, 79km
Updated: Sun, 23-Jan-2022 9:55am EST
Overcast
Overcast
 Wind from NW
Wind: NW 6 mph , 9 km/h, Gust: 15 mph , 24 km/h
Temperature: 36°F , 2°C
Wind Chill: 31°F , -1°C
Dew Point: 36°F , 2°C
Humidity: 100%
Barometer: 30.19 inHg , 1022.4 hPa
Clouds: Overcast
Visibility: 10 miles , 16 km
Cloud details: Overcast 700 ft
2022/01/23 14:55 K42J 231455Z AUTO 31005G13KT 10SM OVC007 02/02 A3019 RMK A01